sensor_id;sensor_type;location;lat;lon;timestamp;pressure;altitude;pressure_sealevel;temperature;humidity
41624;BME280;27319;50.306;18.926;2023-07-31T00:00:21;97815.91;;;18.48;94.23
41624;BME280;27319;50.306;18.926;2023-07-31T00:04:03;97825.34;;;18.63;92.66
41624;BME280;27319;50.306;18.926;2023-07-31T00:07:04;97819.59;;;18.71;92.20
41624;BME280;27319;50.306;18.926;2023-07-31T00:10:07;97814.16;;;18.71;91.54
41624;BME280;27319;50.306;18.926;2023-07-31T00:13:28;97822.47;;;18.58;92.70
41624;BME280;27319;50.306;18.926;2023-07-31T00:17:28;97820.28;;;18.49;92.98
41624;BME280;27319;50.306;18.926;2023-07-31T00:20:57;97826.75;;;18.66;91.90
41624;BME280;27319;50.306;18.926;2023-07-31T00:23:58;97816.59;;;18.43;93.25
41624;BME280;27319;50.306;18.926;2023-07-31T00:26:59;97826.13;;;18.52;92.14
41624;BME280;27319;50.306;18.926;2023-07-31T00:30:00;97829.88;;;18.51;92.21
41624;BME280;27319;50.306;18.926;2023-07-31T00:33:01;97820.06;;;18.32;92.83
41624;BME280;27319;50.306;18.926;2023-07-31T00:36:22;97817.13;;;18.34;92.37
41624;BME280;27319;50.306;18.926;2023-07-31T00:39:58;97817.31;;;18.14;93.03
41624;BME280;27319;50.306;18.926;2023-07-31T00:43:19;97820.25;;;18.13;92.58
41624;BME280;27319;50.306;18.926;2023-07-31T00:46:56;97825.09;;;18.11;92.08
41624;BME280;27319;50.306;18.926;2023-07-31T00:49:59;97827.97;;;17.98;92.18
41624;BME280;27319;50.306;18.926;2023-07-31T00:53:00;97829.44;;;17.94;92.30
41624;BME280;27319;50.306;18.926;2023-07-31T00:56:00;97831.63;;;17.85;91.92
41624;BME280;27319;50.306;18.926;2023-07-31T00:59:02;97826.75;;;17.94;91.91
41624;BME280;27319;50.306;18.926;2023-07-31T01:02:03;97828.97;;;17.79;91.98
41624;BME280;27319;50.306;18.926;2023-07-31T01:05:05;97837.19;;;17.72;92.53
41624;BME280;27319;50.306;18.926;2023-07-31T01:11:32;97847.88;;;17.67;92.59
41624;BME280;27319;50.306;18.926;2023-07-31T01:14:34;97849.88;;;17.54;93.91
41624;BME280;27319;50.306;18.926;2023-07-31T01:17:36;97843.47;;;17.48;93.88
41624;BME280;27319;50.306;18.926;2023-07-31T01:20:37;97846.22;;;17.66;93.11
41624;BME280;27319;50.306;18.926;2023-07-31T01:27:08;97851.34;;;17.50;93.57
41624;BME280;27319;50.306;18.926;2023-07-31T01:30:19;97854.78;;;17.63;92.81
41624;BME280;27319;50.306;18.926;2023-07-31T01:33:41;97856.69;;;17.38;93.17
41624;BME280;27319;50.306;18.926;2023-07-31T01:37:42;97851.63;;;17.42;93.33
41624;BME280;27319;50.306;18.926;2023-07-31T01:41:42;97864.47;;;17.22;94.10
41624;BME280;27319;50.306;18.926;2023-07-31T01:45:43;97867.81;;;17.24;94.49
41624;BME280;27319;50.306;18.926;2023-07-31T01:49:44;97859.03;;;17.22;94.34
41624;BME280;27319;50.306;18.926;2023-07-31T01:53:45;97872.44;;;17.17;94.76
41624;BME280;27319;50.306;18.926;2023-07-31T01:57:45;97867.44;;;17.14;94.61
41624;BME280;27319;50.306;18.926;2023-07-31T02:01:46;97863.16;;;17.00;95.81
41624;BME280;27319;50.306;18.926;2023-07-31T02:05:27;97864.66;;;16.89;96.43
41624;BME280;27319;50.306;18.926;2023-07-31T02:08:28;97867.38;;;16.89;96.73
41624;BME280;27319;50.306;18.926;2023-07-31T02:11:31;97872.59;;;16.91;96.81
41624;BME280;27319;50.306;18.926;2023-07-31T02:14:32;97873.81;;;16.95;96.19
41624;BME280;27319;50.306;18.926;2023-07-31T02:17:53;97879.81;;;17.03;96.13
41624;BME280;27319;50.306;18.926;2023-07-31T02:21:54;97882.28;;;17.11;95.60
41624;BME280;27319;50.306;18.926;2023-07-31T02:25:54;97879.56;;;17.11;95.90
41624;BME280;27319;50.306;18.926;2023-07-31T02:29:55;97884.97;;;17.11;95.53
41624;BME280;27319;50.306;18.926;2023-07-31T02:33:56;97901.25;;;17.11;95.80
41624;BME280;27319;50.306;18.926;2023-07-31T02:37:57;97905.41;;;17.14;95.28
41624;BME280;27319;50.306;18.926;2023-07-31T02:41:59;97893.88;;;17.25;94.67
41624;BME280;27319;50.306;18.926;2023-07-31T02:45:40;97882.47;;;17.10;95.07
41624;BME280;27319;50.306;18.926;2023-07-31T02:48:40;97879.84;;;16.97;96.20
41624;BME280;27319;50.306;18.926;2023-07-31T02:51:41;97877.91;;;17.10;95.33
41624;BME280;27319;50.306;18.926;2023-07-31T02:54:42;97881.66;;;17.09;95.22
41624;BME280;27319;50.306;18.926;2023-07-31T02:57:43;97900.53;;;16.91;96.66
41624;BME280;27319;50.306;18.926;2023-07-31T03:00:44;97908.91;;;16.83;96.78
41624;BME280;27319;50.306;18.926;2023-07-31T03:03:46;97906.25;;;16.77;96.99
41624;BME280;27319;50.306;18.926;2023-07-31T03:06:47;97909.75;;;16.84;97.28
41624;BME280;27319;50.306;18.926;2023-07-31T03:09:48;97918.00;;;17.02;95.19
41624;BME280;27319;50.306;18.926;2023-07-31T03:12:49;97917.63;;;16.92;95.44
41624;BME280;27319;50.306;18.926;2023-07-31T03:15:50;97923.09;;;16.79;95.91
41624;BME280;27319;50.306;18.926;2023-07-31T03:18:51;97922.91;;;16.74;96.66
41624;BME280;27319;50.306;18.926;2023-07-31T03:22:12;97914.91;;;16.92;94.85
41624;BME280;27319;50.306;18.926;2023-07-31T03:26:16;97906.84;;;16.85;95.28
41624;BME280;27319;50.306;18.926;2023-07-31T03:30:16;97914.31;;;16.90;96.06
41624;BME280;27319;50.306;18.926;2023-07-31T03:34:17;97912.19;;;16.92;94.84
41624;BME280;27319;50.306;18.926;2023-07-31T03:38:18;97925.16;;;16.83;94.49
41624;BME280;27319;50.306;18.926;2023-07-31T03:42:07;97926.47;;;16.74;95.13
41624;BME280;27319;50.306;18.926;2023-07-31T03:45:28;97932.28;;;16.78;95.13
41624;BME280;27319;50.306;18.926;2023-07-31T03:49:29;97932.50;;;16.76;94.76
41624;BME280;27319;50.306;18.926;2023-07-31T03:53:30;97930.66;;;16.70;95.02
41624;BME280;27319;50.306;18.926;2023-07-31T03:57:30;97939.09;;;16.93;94.44
41624;BME280;27319;50.306;18.926;2023-07-31T04:01:31;97934.34;;;16.89;94.45
41624;BME280;27319;50.306;18.926;2023-07-31T04:05:12;97941.41;;;16.90;94.49
41624;BME280;27319;50.306;18.926;2023-07-31T04:08:13;97937.59;;;17.04;93.64
41624;BME280;27319;50.306;18.926;2023-07-31T04:11:14;97936.59;;;16.98;93.26
41624;BME280;27319;50.306;18.926;2023-07-31T04:14:15;97939.31;;;16.92;94.00
41624;BME280;27319;50.306;18.926;2023-07-31T04:17:19;97935.06;;;17.09;93.15
41624;BME280;27319;50.306;18.926;2023-07-31T04:20:20;97939.09;;;17.00;93.16
41624;BME280;27319;50.306;18.926;2023-07-31T04:23:41;97939.63;;;17.15;91.97
41624;BME280;27319;50.306;18.926;2023-07-31T04:27:42;97929.84;;;17.07;91.89
41624;BME280;27319;50.306;18.926;2023-07-31T04:31:43;97933.41;;;17.08;91.40
41624;BME280;27319;50.306;18.926;2023-07-31T04:35:50;97938.34;;;17.17;90.73
41624;BME280;27319;50.306;18.926;2023-07-31T04:39:50;97946.66;;;17.29;90.09
41624;BME280;27319;50.306;18.926;2023-07-31T04:43:51;97949.56;;;17.34;89.98
41624;BME280;27319;50.306;18.926;2023-07-31T04:47:52;97948.91;;;17.32;88.52
41624;BME280;27319;50.306;18.926;2023-07-31T04:51:56;97950.97;;;17.36;89.13
41624;BME280;27319;50.306;18.926;2023-07-31T04:55:56;97964.59;;;17.30;89.50
41624;BME280;27319;50.306;18.926;2023-07-31T04:59:57;97957.53;;;17.16;89.79
41624;BME280;27319;50.306;18.926;2023-07-31T05:03:58;97960.41;;;17.34;88.92
41624;BME280;27319;50.306;18.926;2023-07-31T05:07:59;97958.94;;;17.38;89.80
41624;BME280;27319;50.306;18.926;2023-07-31T05:12:00;97948.13;;;17.25;88.25
41624;BME280;27319;50.306;18.926;2023-07-31T05:16:01;97947.91;;;17.26;88.54
41624;BME280;27319;50.306;18.926;2023-07-31T05:20:01;97957.88;;;17.39;88.76
41624;BME280;27319;50.306;18.926;2023-07-31T05:24:02;97958.03;;;17.50;87.53
41624;BME280;27319;50.306;18.926;2023-07-31T05:28:03;97959.84;;;17.63;87.11
41624;BME280;27319;50.306;18.926;2023-07-31T05:32:04;97959.84;;;17.63;86.17
41624;BME280;27319;50.306;18.926;2023-07-31T05:36:05;97958.53;;;17.65;85.23
41624;BME280;27319;50.306;18.926;2023-07-31T05:40:06;97967.53;;;17.66;86.55
41624;BME280;27319;50.306;18.926;2023-07-31T05:44:07;97967.25;;;17.74;85.38
41624;BME280;27319;50.306;18.926;2023-07-31T05:48:08;97960.78;;;17.75;84.33
41624;BME280;27319;50.306;18.926;2023-07-31T05:52:08;97958.78;;;17.88;84.62
41624;BME280;27319;50.306;18.926;2023-07-31T05:56:09;97962.75;;;18.17;82.66
41624;BME280;27319;50.306;18.926;2023-07-31T06:00:13;97972.25;;;18.26;82.48
41624;BME280;27319;50.306;18.926;2023-07-31T06:04:14;97967.09;;;18.18;82.10
41624;BME280;27319;50.306;18.926;2023-07-31T06:08:14;97969.78;;;18.24;81.21
41624;BME280;27319;50.306;18.926;2023-07-31T06:12:15;97969.09;;;18.29;81.07
41624;BME280;27319;50.306;18.926;2023-07-31T06:16:16;97966.38;;;18.29;81.54
41624;BME280;27319;50.306;18.926;2023-07-31T06:19:59;97976.03;;;18.25;80.53
41624;BME280;27319;50.306;18.926;2023-07-31T06:23:19;97973.59;;;18.17;80.82
41624;BME280;27319;50.306;18.926;2023-07-31T06:27:20;97966.06;;;18.19;80.73
41624;BME280;27319;50.306;18.926;2023-07-31T06:31:21;97965.69;;;18.40;79.83
41624;BME280;27319;50.306;18.926;2023-07-31T06:35:22;97971.31;;;18.63;78.11
41624;BME280;27319;50.306;18.926;2023-07-31T06:39:23;97960.28;;;18.58;77.60
41624;BME280;27319;50.306;18.926;2023-07-31T06:43:24;97962.78;;;18.59;77.13
41624;BME280;27319;50.306;18.926;2023-07-31T06:47:25;97959.69;;;18.56;76.63
41624;BME280;27319;50.306;18.926;2023-07-31T06:51:26;97956.66;;;18.82;76.48
41624;BME280;27319;50.306;18.926;2023-07-31T06:55:36;97964.53;;;18.90;75.52
41624;BME280;27319;50.306;18.926;2023-07-31T06:59:37;97971.16;;;18.94;76.09
41624;BME280;27319;50.306;18.926;2023-07-31T07:03:38;97974.31;;;19.09;74.75
41624;BME280;27319;50.306;18.926;2023-07-31T07:07:38;97968.31;;;19.25;74.86
41624;BME280;27319;50.306;18.926;2023-07-31T07:11:39;97970.22;;;19.18;71.96
41624;BME280;27319;50.306;18.926;2023-07-31T07:15:40;97972.94;;;19.18;73.29
41624;BME280;27319;50.306;18.926;2023-07-31T07:19:41;97969.19;;;19.19;73.33
41624;BME280;27319;50.306;18.926;2023-07-31T07:23:42;97968.97;;;19.38;74.18
41624;BME280;27319;50.306;18.926;2023-07-31T07:27:43;97968.13;;;19.38;73.70
41624;BME280;27319;50.306;18.926;2023-07-31T07:31:44;97968.16;;;19.49;72.81
41624;BME280;27319;50.306;18.926;2023-07-31T07:35:44;97972.19;;;19.47;70.76
41624;BME280;27319;50.306;18.926;2023-07-31T07:39:45;97971.94;;;19.78;71.34
41624;BME280;27319;50.306;18.926;2023-07-31T07:43:46;97975.38;;;19.85;70.62
41624;BME280;27319;50.306;18.926;2023-07-31T07:47:47;97976.22;;;19.85;68.67
41624;BME280;27319;50.306;18.926;2023-07-31T07:51:48;97972.34;;;19.93;69.98
41624;BME280;27319;50.306;18.926;2023-07-31T07:55:49;97973.31;;;20.10;69.47
41624;BME280;27319;50.306;18.926;2023-07-31T07:59:50;97975.00;;;20.11;69.47
41624;BME280;27319;50.306;18.926;2023-07-31T08:03:51;97976.84;;;19.99;69.09
41624;BME280;27319;50.306;18.926;2023-07-31T08:06:51;97975.25;;;20.09;69.58
41624;BME280;27319;50.306;18.926;2023-07-31T08:09:53;97977.75;;;20.22;69.46
41624;BME280;27319;50.306;18.926;2023-07-31T08:12:53;97975.97;;;20.28;70.36
41624;BME280;27319;50.306;18.926;2023-07-31T08:15:55;97989.25;;;20.36;68.42
41624;BME280;27319;50.306;18.926;2023-07-31T08:18:56;97975.50;;;20.54;68.27
41624;BME280;27319;50.306;18.926;2023-07-31T08:21:57;97978.72;;;20.51;67.16
41624;BME280;27319;50.306;18.926;2023-07-31T08:24:57;97986.16;;;20.67;67.14
41624;BME280;27319;50.306;18.926;2023-07-31T08:27:59;97991.97;;;20.93;67.47
41624;BME280;27319;50.306;18.926;2023-07-31T08:31:00;97995.19;;;20.90;65.93
41624;BME280;27319;50.306;18.926;2023-07-31T08:34:01;97994.97;;;20.92;67.11
41624;BME280;27319;50.306;18.926;2023-07-31T08:37:21;97992.72;;;21.00;65.90
41624;BME280;27319;50.306;18.926;2023-07-31T08:41:22;97982.19;;;21.20;66.27
41624;BME280;27319;50.306;18.926;2023-07-31T08:45:23;97995.16;;;21.02;65.85
41624;BME280;27319;50.306;18.926;2023-07-31T08:49:24;97996.59;;;21.16;64.16
41624;BME280;27319;50.306;18.926;2023-07-31T08:53:25;97982.47;;;21.47;64.24
41624;BME280;27319;50.306;18.926;2023-07-31T08:57:26;97983.66;;;21.51;62.71
41624;BME280;27319;50.306;18.926;2023-07-31T09:01:27;97979.75;;;21.47;60.77
41624;BME280;27319;50.306;18.926;2023-07-31T09:05:08;97993.72;;;21.62;61.04
41624;BME280;27319;50.306;18.926;2023-07-31T09:08:10;97981.09;;;21.72;61.47
41624;BME280;27319;50.306;18.926;2023-07-31T09:11:12;97987.84;;;21.98;62.06
41624;BME280;27319;50.306;18.926;2023-07-31T09:14:13;97984.06;;;21.71;62.42
41624;BME280;27319;50.306;18.926;2023-07-31T09:17:35;97983.56;;;22.02;61.38
41624;BME280;27319;50.306;18.926;2023-07-31T09:21:02;97975.84;;;21.99;60.41
41624;BME280;27319;50.306;18.926;2023-07-31T09:24:42;97988.78;;;22.20;59.64
41624;BME280;27319;50.306;18.926;2023-07-31T09:28:06;97979.94;;;22.13;58.97
41624;BME280;27319;50.306;18.926;2023-07-31T09:32:12;97970.25;;;22.55;58.48
41624;BME280;27319;50.306;18.926;2023-07-31T09:36:07;97970.56;;;22.42;58.10
41624;BME280;27319;50.306;18.926;2023-07-31T09:40:08;97981.16;;;22.22;58.96
41624;BME280;27319;50.306;18.926;2023-07-31T09:44:15;97971.22;;;21.99;59.32
41624;BME280;27319;50.306;18.926;2023-07-31T09:48:16;97967.47;;;22.71;57.02
41624;BME280;27319;50.306;18.926;2023-07-31T09:52:17;97968.09;;;22.95;55.36
41624;BME280;27319;50.306;18.926;2023-07-31T09:56:18;97966.25;;;23.00;54.79
41624;BME280;27319;50.306;18.926;2023-07-31T10:00:18;97960.03;;;23.05;54.23
41624;BME280;27319;50.306;18.926;2023-07-31T10:03:59;97956.00;;;22.53;54.72
41624;BME280;27319;50.306;18.926;2023-07-31T10:08:00;97969.97;;;22.40;56.30
41624;BME280;27319;50.306;18.926;2023-07-31T10:12:01;97959.63;;;22.42;54.43
41624;BME280;27319;50.306;18.926;2023-07-31T10:16:01;97959.63;;;22.09;54.21
41624;BME280;27319;50.306;18.926;2023-07-31T10:19:11;97947.84;;;21.92;53.88
41624;BME280;27319;50.306;18.926;2023-07-31T10:22:13;97941.72;;;21.85;56.51
41624;BME280;27319;50.306;18.926;2023-07-31T10:25:15;97938.28;;;22.06;56.45
41624;BME280;27319;50.306;18.926;2023-07-31T10:28:17;97930.47;;;22.31;55.60
41624;BME280;27319;50.306;18.926;2023-07-31T10:31:18;97936.66;;;22.76;54.35
41624;BME280;27319;50.306;18.926;2023-07-31T10:34:20;97937.50;;;22.60;53.73
41624;BME280;27319;50.306;18.926;2023-07-31T10:37:29;97928.06;;;23.32;53.20
41624;BME280;27319;50.306;18.926;2023-07-31T10:40:30;97928.47;;;24.20;50.30
41624;BME280;27319;50.306;18.926;2023-07-31T10:43:54;97931.22;;;23.67;50.97
41624;BME280;27319;50.306;18.926;2023-07-31T10:47:58;97919.69;;;23.17;51.49
41624;BME280;27319;50.306;18.926;2023-07-31T10:51:59;97928.25;;;23.47;49.86
41624;BME280;27319;50.306;18.926;2023-07-31T10:55:59;97918.50;;;24.45;47.65
41624;BME280;27319;50.306;18.926;2023-07-31T11:00:21;97927.97;;;23.70;48.68
41624;BME280;27319;50.306;18.926;2023-07-31T11:04:07;97919.22;;;24.31;50.88
41624;BME280;27319;50.306;18.926;2023-07-31T11:08:11;97934.13;;;25.28;47.36
41624;BME280;27319;50.306;18.926;2023-07-31T11:12:11;97922.56;;;24.74;47.90
41624;BME280;27319;50.306;18.926;2023-07-31T11:16:12;97914.94;;;25.43;47.93
41624;BME280;27319;50.306;18.926;2023-07-31T11:20:12;97918.38;;;25.95;43.82
41624;BME280;27319;50.306;18.926;2023-07-31T11:24:13;97913.97;;;26.34;47.99
41624;BME280;27319;50.306;18.926;2023-07-31T11:28:14;97903.50;;;25.86;44.13
41624;BME280;27319;50.306;18.926;2023-07-31T11:32:18;97914.81;;;26.09;44.42
41624;BME280;27319;50.306;18.926;2023-07-31T11:36:19;97903.50;;;25.04;44.43
41624;BME280;27319;50.306;18.926;2023-07-31T11:40:19;97906.16;;;25.46;45.02
41624;BME280;27319;50.306;18.926;2023-07-31T11:44:19;97897.69;;;24.96;45.34
41624;BME280;27319;50.306;18.926;2023-07-31T11:48:27;97891.38;;;26.47;44.96
41624;BME280;27319;50.306;18.926;2023-07-31T11:52:27;97890.97;;;25.28;45.42
41624;BME280;27319;50.306;18.926;2023-07-31T11:56:28;97891.69;;;25.09;47.37
41624;BME280;27319;50.306;18.926;2023-07-31T12:00:28;97877.88;;;24.84;45.12
41624;BME280;27319;50.306;18.926;2023-07-31T12:04:29;97878.75;;;24.11;47.61
41624;BME280;27319;50.306;18.926;2023-07-31T12:08:30;97872.16;;;24.12;49.30
41624;BME280;27319;50.306;18.926;2023-07-31T12:12:31;97868.88;;;24.15;47.41
41624;BME280;27319;50.306;18.926;2023-07-31T12:16:32;97869.94;;;24.04;47.95
41624;BME280;27319;50.306;18.926;2023-07-31T12:20:32;97858.72;;;24.11;48.62
41624;BME280;27319;50.306;18.926;2023-07-31T12:24:33;97859.84;;;23.83;48.64
41624;BME280;27319;50.306;18.926;2023-07-31T12:28:43;97847.97;;;23.73;48.80
41624;BME280;27319;50.306;18.926;2023-07-31T12:32:43;97832.03;;;23.70;49.71
41624;BME280;27319;50.306;18.926;2023-07-31T12:36:44;97846.00;;;24.00;49.93
41624;BME280;27319;50.306;18.926;2023-07-31T12:40:44;97829.09;;;24.08;48.80
41624;BME280;27319;50.306;18.926;2023-07-31T12:44:45;97827.19;;;24.13;47.79
41624;BME280;27319;50.306;18.926;2023-07-31T12:48:46;97828.41;;;24.27;47.62
41624;BME280;27319;50.306;18.926;2023-07-31T12:52:46;97819.91;;;24.34;46.57
41624;BME280;27319;50.306;18.926;2023-07-31T12:56:47;97828.03;;;25.17;44.10
41624;BME280;27319;50.306;18.926;2023-07-31T13:00:48;97821.75;;;25.26;43.72
41624;BME280;27319;50.306;18.926;2023-07-31T13:04:49;97813.34;;;24.81;46.02
41624;BME280;27319;50.306;18.926;2023-07-31T13:08:50;97816.28;;;24.60;46.05
41624;BME280;27319;50.306;18.926;2023-07-31T13:12:51;97814.78;;;25.09;45.46
41624;BME280;27319;50.306;18.926;2023-07-31T13:16:52;97810.81;;;25.56;44.63
41624;BME280;27319;50.306;18.926;2023-07-31T13:20:52;97801.00;;;24.84;46.88
41624;BME280;27319;50.306;18.926;2023-07-31T13:24:53;97809.72;;;25.97;44.23
41624;BME280;27319;50.306;18.926;2023-07-31T13:28:57;97803.38;;;25.67;44.38
41624;BME280;27319;50.306;18.926;2023-07-31T13:32:58;97791.28;;;25.58;46.47
41624;BME280;27319;50.306;18.926;2023-07-31T13:36:59;97784.69;;;25.34;45.27
41624;BME280;27319;50.306;18.926;2023-07-31T13:41:00;97795.38;;;25.25;44.38
41624;BME280;27319;50.306;18.926;2023-07-31T13:45:00;97787.97;;;25.36;44.47
41624;BME280;27319;50.306;18.926;2023-07-31T13:49:01;97786.63;;;25.48;44.28
41624;BME280;27319;50.306;18.926;2023-07-31T13:53:02;97784.06;;;25.17;45.94
41624;BME280;27319;50.306;18.926;2023-07-31T13:57:03;97779.16;;;25.39;45.89
41624;BME280;27319;50.306;18.926;2023-07-31T14:01:04;97786.88;;;25.77;48.41
41624;BME280;27319;50.306;18.926;2023-07-31T14:05:05;97787.44;;;25.79;44.82
41624;BME280;27319;50.306;18.926;2023-07-31T14:09:06;97788.72;;;25.16;45.69
41624;BME280;27319;50.306;18.926;2023-07-31T14:13:07;97782.84;;;24.73;45.97
41624;BME280;27319;50.306;18.926;2023-07-31T14:17:07;97777.22;;;24.53;46.59
41624;BME280;27319;50.306;18.926;2023-07-31T14:21:08;97781.44;;;24.19;48.44
41624;BME280;27319;50.306;18.926;2023-07-31T14:25:09;97781.63;;;24.07;48.97
41624;BME280;27319;50.306;18.926;2023-07-31T14:29:10;97789.50;;;23.94;48.68
41624;BME280;27319;50.306;18.926;2023-07-31T14:32:26;97782.91;;;23.90;47.89
41624;BME280;27319;50.306;18.926;2023-07-31T14:35:47;97774.00;;;23.78;48.82
41624;BME280;27319;50.306;18.926;2023-07-31T14:39:48;97773.72;;;23.79;48.29
41624;BME280;27319;50.306;18.926;2023-07-31T14:43:49;97771.59;;;23.50;48.85
41624;BME280;27319;50.306;18.926;2023-07-31T14:47:50;97769.84;;;23.39;50.00
41624;BME280;27319;50.306;18.926;2023-07-31T14:51:51;97766.53;;;23.10;49.37
41624;BME280;27319;50.306;18.926;2023-07-31T14:55:51;97763.63;;;23.17;49.59
41624;BME280;27319;50.306;18.926;2023-07-31T14:59:52;97760.88;;;23.17;49.16
41624;BME280;27319;50.306;18.926;2023-07-31T15:03:53;97750.41;;;23.14;49.75
41624;BME280;27319;50.306;18.926;2023-07-31T15:07:54;97739.59;;;23.24;51.00
41624;BME280;27319;50.306;18.926;2023-07-31T15:11:55;97744.13;;;23.40;49.77
41624;BME280;27319;50.306;18.926;2023-07-31T15:15:55;97750.25;;;25.06;48.95
41624;BME280;27319;50.306;18.926;2023-07-31T15:19:56;97748.94;;;26.04;45.19
41624;BME280;27319;50.306;18.926;2023-07-31T15:23:57;97740.94;;;26.17;44.84
41624;BME280;27319;50.306;18.926;2023-07-31T15:27:58;97739.84;;;26.18;44.74
41624;BME280;27319;50.306;18.926;2023-07-31T15:31:59;97738.41;;;26.31;45.36
41624;BME280;27319;50.306;18.926;2023-07-31T15:35:59;97735.69;;;26.26;45.59
41624;BME280;27319;50.306;18.926;2023-07-31T15:40:00;97731.56;;;26.92;43.94
41624;BME280;27319;50.306;18.926;2023-07-31T15:44:01;97745.06;;;27.70;41.88
41624;BME280;27319;50.306;18.926;2023-07-31T15:48:02;97733.72;;;26.31;44.33
41624;BME280;27319;50.306;18.926;2023-07-31T15:52:02;97732.44;;;26.09;45.42
41624;BME280;27319;50.306;18.926;2023-07-31T15:56:03;97725.81;;;26.15;45.50
41624;BME280;27319;50.306;18.926;2023-07-31T16:00:04;97719.00;;;25.47;46.05
41624;BME280;27319;50.306;18.926;2023-07-31T16:04:05;97708.66;;;24.58;48.08
41624;BME280;27319;50.306;18.926;2023-07-31T16:07:46;97710.00;;;24.50;48.47
41624;BME280;27319;50.306;18.926;2023-07-31T16:10:47;97706.59;;;25.00;48.01
41624;BME280;27319;50.306;18.926;2023-07-31T16:13:48;97697.28;;;25.31;46.95
41624;BME280;27319;50.306;18.926;2023-07-31T16:16:49;97695.22;;;24.61;48.79
41624;BME280;27319;50.306;18.926;2023-07-31T16:19:50;97699.94;;;24.76;48.40
41624;BME280;27319;50.306;18.926;2023-07-31T16:22:51;97695.72;;;24.48;49.70
41624;BME280;27319;50.306;18.926;2023-07-31T16:25:52;97694.28;;;24.31;50.68
41624;BME280;27319;50.306;18.926;2023-07-31T16:28:53;97695.28;;;24.10;50.64
41624;BME280;27319;50.306;18.926;2023-07-31T16:31:54;97691.00;;;24.34;50.09
41624;BME280;27319;50.306;18.926;2023-07-31T16:35:14;97686.38;;;24.44;49.26
41624;BME280;27319;50.306;18.926;2023-07-31T16:39:15;97686.03;;;24.26;50.36
41624;BME280;27319;50.306;18.926;2023-07-31T16:43:16;97685.41;;;24.09;49.56
41624;BME280;27319;50.306;18.926;2023-07-31T16:47:16;97684.88;;;24.17;49.63
41624;BME280;27319;50.306;18.926;2023-07-31T16:51:17;97681.03;;;24.08;49.88
41624;BME280;27319;50.306;18.926;2023-07-31T16:55:18;97673.66;;;23.72;49.10
41624;BME280;27319;50.306;18.926;2023-07-31T16:59:19;97668.16;;;23.67;50.45
41624;BME280;27319;50.306;18.926;2023-07-31T17:03:01;97678.38;;;23.40;50.60
41624;BME280;27319;50.306;18.926;2023-07-31T17:06:02;97686.00;;;23.33;51.28
41624;BME280;27319;50.306;18.926;2023-07-31T17:09:03;97682.03;;;23.19;52.05
41624;BME280;27319;50.306;18.926;2023-07-31T17:12:04;97677.66;;;23.18;51.92
41624;BME280;27319;50.306;18.926;2023-07-31T17:15:06;97691.00;;;23.14;53.48
41624;BME280;27319;50.306;18.926;2023-07-31T17:18:07;97680.25;;;23.08;51.93
41624;BME280;27319;50.306;18.926;2023-07-31T17:21:09;97682.94;;;22.98;52.21
41624;BME280;27319;50.306;18.926;2023-07-31T17:24:10;97672.72;;;22.93;53.53
41624;BME280;27319;50.306;18.926;2023-07-31T17:27:11;97686.91;;;22.85;54.20
41624;BME280;27319;50.306;18.926;2023-07-31T17:30:12;97679.97;;;22.78;54.43
41624;BME280;27319;50.306;18.926;2023-07-31T17:33:33;97673.66;;;22.77;55.46
41624;BME280;27319;50.306;18.926;2023-07-31T17:37:34;97676.47;;;22.56;56.65
41624;BME280;27319;50.306;18.926;2023-07-31T17:41:35;97678.34;;;22.29;59.08
41624;BME280;27319;50.306;18.926;2023-07-31T17:45:36;97678.28;;;22.24;57.11
41624;BME280;27319;50.306;18.926;2023-07-31T17:49:40;97673.91;;;22.23;58.27
41624;BME280;27319;50.306;18.926;2023-07-31T17:53:40;97676.34;;;22.03;60.19
41624;BME280;27319;50.306;18.926;2023-07-31T17:57:22;97671.78;;;21.87;60.51
41624;BME280;27319;50.306;18.926;2023-07-31T18:00:23;97669.97;;;21.76;61.13
41624;BME280;27319;50.306;18.926;2023-07-31T18:03:24;97675.78;;;21.63;62.02
41624;BME280;27319;50.306;18.926;2023-07-31T18:06:26;97675.47;;;21.59;62.79
41624;BME280;27319;50.306;18.926;2023-07-31T18:09:27;97682.16;;;21.52;62.34
41624;BME280;27319;50.306;18.926;2023-07-31T18:12:28;97688.53;;;21.41;63.05
41624;BME280;27319;50.306;18.926;2023-07-31T18:15:29;97684.28;;;21.28;63.68
41624;BME280;27319;50.306;18.926;2023-07-31T18:18:30;97679.97;;;21.16;63.53
41624;BME280;27319;50.306;18.926;2023-07-31T18:21:31;97682.63;;;21.11;64.46
41624;BME280;27319;50.306;18.926;2023-07-31T18:24:34;97686.91;;;21.07;64.46
41624;BME280;27319;50.306;18.926;2023-07-31T18:27:35;97687.41;;;21.04;64.43
41624;BME280;27319;50.306;18.926;2023-07-31T18:30:36;97676.31;;;20.94;65.42
41624;BME280;27319;50.306;18.926;2023-07-31T18:33:37;97678.84;;;20.84;66.10
41624;BME280;27319;50.306;18.926;2023-07-31T18:36:38;97683.06;;;20.75;65.77
41624;BME280;27319;50.306;18.926;2023-07-31T18:39:41;97670.31;;;20.64;67.20
41624;BME280;27319;50.306;18.926;2023-07-31T18:42:42;97674.81;;;20.58;66.83
41624;BME280;27319;50.306;18.926;2023-07-31T18:45:43;97670.94;;;20.54;66.94
41624;BME280;27319;50.306;18.926;2023-07-31T18:48:44;97672.72;;;20.49;67.89
41624;BME280;27319;50.306;18.926;2023-07-31T18:51:45;97676.78;;;20.46;67.92
41624;BME280;27319;50.306;18.926;2023-07-31T18:54:47;97686.44;;;20.37;67.46
41624;BME280;27319;50.306;18.926;2023-07-31T18:57:49;97685.13;;;20.40;67.25
41624;BME280;27319;50.306;18.926;2023-07-31T19:00:50;97690.38;;;20.30;67.38
41624;BME280;27319;50.306;18.926;2023-07-31T19:03:58;97695.31;;;20.33;67.61
41624;BME280;27319;50.306;18.926;2023-07-31T19:06:59;97697.47;;;20.31;67.63
41624;BME280;27319;50.306;18.926;2023-07-31T19:10:00;97703.56;;;20.21;68.17